Ana Sayfa
METAR-TAF:

METAR-TAF

Havaalanları :

Sao Paulo, São Paulo, Brezilya

Enlem: 23-37S, Boylam: 046-39W, yükseklik: 803 m

Güncel hava durumu gözlemi

Rapor saat 01:00 UTC de 9 dakika önce yapıldı.
Rüzgar doğu/güneydoğudan 8 kt
Sıcaklık 20°C
Nem 83%
Basınç 1019 hPa
Görüş mesafesi: 9000 m
1100 ft yükseklikte çok bulutlu

METAR: SBSP 200100Z 12008KT 9000 OVC011 20/17 Q1019

Saat: 22:09 (01:09 UTC)

Tahmin

Rapor saat 22:30 UTC de 2 saat ve 39 dakika önce yapıldı.
Ayın 20'si saat 00 UTC'den ayın 20'si saat 12 UTC'ye kadar geçerli Tahmin
Rüzgar güneydoğudan 10 kt
Görüş mesafesi 10 km veya daha fazla
1200 ft yükseklikte parçalı çok bulutlu
Dönüşüyor
ayın 20'si saat 09 UTC'den ayın 20'si saat 11 UTC'ye kadar
3000 ft yükseklikte parçalı bulutlu

TAF: SBSP 192230Z 2000/2012 14010KT 9999 BKN012 TN19/2009Z TX21/2011Z BECMG 2009/2011 SCT030 RMK PGG

4.000'den fazla havaalanı için hava durumu gözlemleri ve tahminleri (METAR ve TAF raporları).

Kullanılabilir istasyonlar harita üzerinde sarı ve kırmızı noktalarla gösterilir.

İstasyonun adını görmek için fareyi noktanın üzerinde gezdirin.

Sonrasında hava gözlem ve tahminlerini görmek için tıklayın.

Haritayı değiştirmek için: yaklaştırmak için siyah artı işaretli yeşil düğmeye ve uzaklaştırmak için de eksi işaretli düğmeye hızla tıklayın; bitişik haritalar için yeşil okları kullanın.


METAR-TAF: